sensor_id;sensor_type;location;lat;lon;timestamp;temperature;humidity
9450;DHT22;4763;48.370;10.874;2023-05-07T00:00:33;12.80;99.90
9450;DHT22;4763;48.370;10.874;2023-05-07T00:03:20;12.80;99.90
9450;DHT22;4763;48.370;10.874;2023-05-07T00:06:07;12.70;99.90
9450;DHT22;4763;48.370;10.874;2023-05-07T00:08:57;12.80;99.90
9450;DHT22;4763;48.370;10.874;2023-05-07T00:11:46;12.70;99.90
9450;DHT22;4763;48.370;10.874;2023-05-07T00:14:33;12.70;99.90
9450;DHT22;4763;48.370;10.874;2023-05-07T00:17:20;12.60;99.90
9450;DHT22;4763;48.370;10.874;2023-05-07T00:20:08;12.70;99.90
9450;DHT22;4763;48.370;10.874;2023-05-07T00:22:55;12.70;99.90
9450;DHT22;4763;48.370;10.874;2023-05-07T00:25:44;12.60;99.90
9450;DHT22;4763;48.370;10.874;2023-05-07T00:28:30;12.60;99.90
9450;DHT22;4763;48.370;10.874;2023-05-07T00:31:18;12.60;99.90
9450;DHT22;4763;48.370;10.874;2023-05-07T00:34:05;12.60;99.90
9450;DHT22;4763;48.370;10.874;2023-05-07T00:36:52;12.50;99.90
9450;DHT22;4763;48.370;10.874;2023-05-07T00:39:39;12.50;99.90
9450;DHT22;4763;48.370;10.874;2023-05-07T00:42:27;12.50;99.90
9450;DHT22;4763;48.370;10.874;2023-05-07T00:45:15;12.50;99.90
9450;DHT22;4763;48.370;10.874;2023-05-07T00:48:02;12.50;99.90
9450;DHT22;4763;48.370;10.874;2023-05-07T00:50:50;12.50;99.90
9450;DHT22;4763;48.370;10.874;2023-05-07T00:53:38;12.40;99.90
9450;DHT22;4763;48.370;10.874;2023-05-07T00:56:25;12.40;99.90
9450;DHT22;4763;48.370;10.874;2023-05-07T00:59:14;12.40;99.90
9450;DHT22;4763;48.370;10.874;2023-05-07T01:02:02;12.40;99.90
9450;DHT22;4763;48.370;10.874;2023-05-07T01:04:49;12.30;99.90
9450;DHT22;4763;48.370;10.874;2023-05-07T01:07:37;12.30;99.90
9450;DHT22;4763;48.370;10.874;2023-05-07T01:10:25;12.20;99.90
9450;DHT22;4763;48.370;10.874;2023-05-07T01:13:13;12.20;99.90
9450;DHT22;4763;48.370;10.874;2023-05-07T01:16:03;12.20;99.90
9450;DHT22;4763;48.370;10.874;2023-05-07T01:18:51;12.20;99.90
9450;DHT22;4763;48.370;10.874;2023-05-07T01:21:38;12.20;99.90
9450;DHT22;4763;48.370;10.874;2023-05-07T01:24:27;12.10;99.90
9450;DHT22;4763;48.370;10.874;2023-05-07T01:27:14;12.10;99.90
9450;DHT22;4763;48.370;10.874;2023-05-07T01:30:01;12.10;99.90
9450;DHT22;4763;48.370;10.874;2023-05-07T01:32:51;12.10;99.90
9450;DHT22;4763;48.370;10.874;2023-05-07T01:35:41;12.10;99.90
9450;DHT22;4763;48.370;10.874;2023-05-07T01:38:30;12.20;99.90
9450;DHT22;4763;48.370;10.874;2023-05-07T01:41:19;12.20;99.90
9450;DHT22;4763;48.370;10.874;2023-05-07T01:44:07;12.30;99.90
9450;DHT22;4763;48.370;10.874;2023-05-07T01:46:55;12.30;99.90
9450;DHT22;4763;48.370;10.874;2023-05-07T01:49:43;12.20;99.90
9450;DHT22;4763;48.370;10.874;2023-05-07T01:52:31;12.20;99.90
9450;DHT22;4763;48.370;10.874;2023-05-07T01:55:18;12.20;99.90
9450;DHT22;4763;48.370;10.874;2023-05-07T01:58:06;12.20;99.90
9450;DHT22;4763;48.370;10.874;2023-05-07T02:00:53;12.10;99.90
9450;DHT22;4763;48.370;10.874;2023-05-07T02:03:41;12.10;99.90
9450;DHT22;4763;48.370;10.874;2023-05-07T02:06:28;12.10;99.90
9450;DHT22;4763;48.370;10.874;2023-05-07T02:09:15;12.10;99.90
9450;DHT22;4763;48.370;10.874;2023-05-07T02:12:02;12.10;99.90
9450;DHT22;4763;48.370;10.874;2023-05-07T02:14:50;12.10;99.90
9450;DHT22;4763;48.370;10.874;2023-05-07T02:17:39;12.00;99.90
9450;DHT22;4763;48.370;10.874;2023-05-07T02:20:44;12.00;99.90
9450;DHT22;4763;48.370;10.874;2023-05-07T02:23:31;11.90;99.90
9450;DHT22;4763;48.370;10.874;2023-05-07T02:26:18;11.80;99.90
9450;DHT22;4763;48.370;10.874;2023-05-07T02:29:07;11.80;99.90
9450;DHT22;4763;48.370;10.874;2023-05-07T02:31:55;11.80;99.90
9450;DHT22;4763;48.370;10.874;2023-05-07T02:34:42;11.80;99.90
9450;DHT22;4763;48.370;10.874;2023-05-07T02:37:29;11.80;99.90
9450;DHT22;4763;48.370;10.874;2023-05-07T02:40:16;11.70;99.90
9450;DHT22;4763;48.370;10.874;2023-05-07T02:43:04;11.70;99.90
9450;DHT22;4763;48.370;10.874;2023-05-07T02:46:00;11.70;99.90
9450;DHT22;4763;48.370;10.874;2023-05-07T02:48:48;11.70;99.90
9450;DHT22;4763;48.370;10.874;2023-05-07T02:51:36;11.70;99.90
9450;DHT22;4763;48.370;10.874;2023-05-07T02:54:23;11.70;99.90
9450;DHT22;4763;48.370;10.874;2023-05-07T02:57:10;11.60;99.90
9450;DHT22;4763;48.370;10.874;2023-05-07T02:59:58;11.60;99.90
9450;DHT22;4763;48.370;10.874;2023-05-07T03:02:45;11.60;99.90
9450;DHT22;4763;48.370;10.874;2023-05-07T03:05:34;11.60;99.90
9450;DHT22;4763;48.370;10.874;2023-05-07T03:08:21;11.50;99.90
9450;DHT22;4763;48.370;10.874;2023-05-07T03:11:08;11.60;99.90
9450;DHT22;4763;48.370;10.874;2023-05-07T03:13:55;11.50;99.90
9450;DHT22;4763;48.370;10.874;2023-05-07T03:16:43;11.50;99.90
9450;DHT22;4763;48.370;10.874;2023-05-07T03:19:30;11.50;99.90
9450;DHT22;4763;48.370;10.874;2023-05-07T03:22:18;11.50;99.90
9450;DHT22;4763;48.370;10.874;2023-05-07T03:25:07;11.40;99.90
9450;DHT22;4763;48.370;10.874;2023-05-07T03:27:54;11.50;99.90
9450;DHT22;4763;48.370;10.874;2023-05-07T03:30:41;11.50;99.90
9450;DHT22;4763;48.370;10.874;2023-05-07T03:33:28;11.50;99.90
9450;DHT22;4763;48.370;10.874;2023-05-07T03:36:15;11.40;99.90
9450;DHT22;4763;48.370;10.874;2023-05-07T03:39:03;11.30;99.90
9450;DHT22;4763;48.370;10.874;2023-05-07T03:41:50;11.30;99.90
9450;DHT22;4763;48.370;10.874;2023-05-07T03:44:38;11.30;99.90
9450;DHT22;4763;48.370;10.874;2023-05-07T03:47:25;11.30;99.90
9450;DHT22;4763;48.370;10.874;2023-05-07T03:50:12;11.30;99.90
9450;DHT22;4763;48.370;10.874;2023-05-07T03:52:59;11.40;99.90
9450;DHT22;4763;48.370;10.874;2023-05-07T03:55:47;11.40;99.90
9450;DHT22;4763;48.370;10.874;2023-05-07T03:58:35;11.40;99.90
9450;DHT22;4763;48.370;10.874;2023-05-07T04:01:22;11.40;99.90
9450;DHT22;4763;48.370;10.874;2023-05-07T04:04:09;11.40;99.90
9450;DHT22;4763;48.370;10.874;2023-05-07T04:06:56;11.30;99.90
9450;DHT22;4763;48.370;10.874;2023-05-07T04:09:43;11.30;99.90
9450;DHT22;4763;48.370;10.874;2023-05-07T04:12:31;11.30;99.90
9450;DHT22;4763;48.370;10.874;2023-05-07T04:15:18;11.20;99.90
9450;DHT22;4763;48.370;10.874;2023-05-07T04:18:06;11.20;99.90
9450;DHT22;4763;48.370;10.874;2023-05-07T04:20:52;11.10;99.90
9450;DHT22;4763;48.370;10.874;2023-05-07T04:23:40;11.00;99.90
9450;DHT22;4763;48.370;10.874;2023-05-07T04:26:27;11.00;99.90
9450;DHT22;4763;48.370;10.874;2023-05-07T04:29:15;11.00;99.90
9450;DHT22;4763;48.370;10.874;2023-05-07T04:32:02;11.00;99.90
9450;DHT22;4763;48.370;10.874;2023-05-07T04:34:49;11.00;99.90
9450;DHT22;4763;48.370;10.874;2023-05-07T04:37:36;11.00;99.90
9450;DHT22;4763;48.370;10.874;2023-05-07T04:40:23;10.90;99.90
9450;DHT22;4763;48.370;10.874;2023-05-07T04:43:10;10.90;99.90
9450;DHT22;4763;48.370;10.874;2023-05-07T04:45:59;11.00;99.90
9450;DHT22;4763;48.370;10.874;2023-05-07T04:48:46;11.00;99.90
9450;DHT22;4763;48.370;10.874;2023-05-07T04:51:33;11.00;99.90
9450;DHT22;4763;48.370;10.874;2023-05-07T04:54:20;11.10;99.90
9450;DHT22;4763;48.370;10.874;2023-05-07T04:57:07;11.20;99.90
9450;DHT22;4763;48.370;10.874;2023-05-07T04:59:54;11.20;99.90
9450;DHT22;4763;48.370;10.874;2023-05-07T05:02:42;11.30;99.90
9450;DHT22;4763;48.370;10.874;2023-05-07T05:05:29;11.30;99.90
9450;DHT22;4763;48.370;10.874;2023-05-07T05:08:16;11.40;99.90
9450;DHT22;4763;48.370;10.874;2023-05-07T05:11:03;11.40;99.90
9450;DHT22;4763;48.370;10.874;2023-05-07T05:13:51;11.50;99.90
9450;DHT22;4763;48.370;10.874;2023-05-07T05:16:38;11.50;99.90
9450;DHT22;4763;48.370;10.874;2023-05-07T05:19:26;11.50;99.90
9450;DHT22;4763;48.370;10.874;2023-05-07T05:22:13;11.50;99.90
9450;DHT22;4763;48.370;10.874;2023-05-07T05:25:01;11.60;99.90
9450;DHT22;4763;48.370;10.874;2023-05-07T05:27:48;11.60;99.90
9450;DHT22;4763;48.370;10.874;2023-05-07T05:30:35;11.60;99.90
9450;DHT22;4763;48.370;10.874;2023-05-07T05:33:22;11.70;99.90
9450;DHT22;4763;48.370;10.874;2023-05-07T05:36:10;11.80;99.90
9450;DHT22;4763;48.370;10.874;2023-05-07T05:38:58;11.80;99.90
9450;DHT22;4763;48.370;10.874;2023-05-07T05:41:46;11.90;99.90
9450;DHT22;4763;48.370;10.874;2023-05-07T05:44:39;12.10;99.90
9450;DHT22;4763;48.370;10.874;2023-05-07T05:47:26;12.20;99.90
9450;DHT22;4763;48.370;10.874;2023-05-07T05:50:13;12.40;99.90
9450;DHT22;4763;48.370;10.874;2023-05-07T05:53:13;12.60;99.90
9450;DHT22;4763;48.370;10.874;2023-05-07T05:56:03;12.70;99.90
9450;DHT22;4763;48.370;10.874;2023-05-07T05:58:53;12.80;99.90
9450;DHT22;4763;48.370;10.874;2023-05-07T06:01:43;13.00;99.90
9450;DHT22;4763;48.370;10.874;2023-05-07T06:04:33;13.20;99.90
9450;DHT22;4763;48.370;10.874;2023-05-07T06:07:33;13.30;99.90
9450;DHT22;4763;48.370;10.874;2023-05-07T06:10:25;13.40;99.90
9450;DHT22;4763;48.370;10.874;2023-05-07T06:13:13;13.60;99.90
9450;DHT22;4763;48.370;10.874;2023-05-07T06:16:00;13.70;99.90
9450;DHT22;4763;48.370;10.874;2023-05-07T06:18:48;13.90;99.90
9450;DHT22;4763;48.370;10.874;2023-05-07T06:21:35;14.00;99.90
9450;DHT22;4763;48.370;10.874;2023-05-07T06:24:22;14.20;99.90
9450;DHT22;4763;48.370;10.874;2023-05-07T06:27:13;14.40;99.90
9450;DHT22;4763;48.370;10.874;2023-05-07T06:30:01;14.60;99.90
9450;DHT22;4763;48.370;10.874;2023-05-07T06:32:48;14.90;99.90
9450;DHT22;4763;48.370;10.874;2023-05-07T06:35:38;15.00;99.90
9450;DHT22;4763;48.370;10.874;2023-05-07T06:38:25;15.20;99.90
9450;DHT22;4763;48.370;10.874;2023-05-07T06:41:12;15.40;99.90
9450;DHT22;4763;48.370;10.874;2023-05-07T06:44:01;15.60;99.90
9450;DHT22;4763;48.370;10.874;2023-05-07T06:46:48;15.70;99.90
9450;DHT22;4763;48.370;10.874;2023-05-07T06:49:35;15.80;99.90
9450;DHT22;4763;48.370;10.874;2023-05-07T06:52:28;16.00;99.90
9450;DHT22;4763;48.370;10.874;2023-05-07T06:55:41;16.10;99.90
9450;DHT22;4763;48.370;10.874;2023-05-07T06:58:29;16.30;99.90
9450;DHT22;4763;48.370;10.874;2023-05-07T07:01:18;16.50;99.90
9450;DHT22;4763;48.370;10.874;2023-05-07T07:04:05;16.70;99.90
9450;DHT22;4763;48.370;10.874;2023-05-07T07:06:54;16.80;99.90
9450;DHT22;4763;48.370;10.874;2023-05-07T07:09:44;16.90;99.90
9450;DHT22;4763;48.370;10.874;2023-05-07T07:12:31;17.00;99.90
9450;DHT22;4763;48.370;10.874;2023-05-07T07:15:19;17.00;99.90
9450;DHT22;4763;48.370;10.874;2023-05-07T07:18:08;17.30;99.90
9450;DHT22;4763;48.370;10.874;2023-05-07T07:20:55;17.50;99.90
9450;DHT22;4763;48.370;10.874;2023-05-07T07:23:43;17.50;99.90
9450;DHT22;4763;48.370;10.874;2023-05-07T07:26:44;17.50;99.90
9450;DHT22;4763;48.370;10.874;2023-05-07T07:29:32;17.80;99.90
9450;DHT22;4763;48.370;10.874;2023-05-07T07:32:29;18.10;99.90
9450;DHT22;4763;48.370;10.874;2023-05-07T07:35:28;18.20;99.90
9450;DHT22;4763;48.370;10.874;2023-05-07T07:38:18;18.40;99.90
9450;DHT22;4763;48.370;10.874;2023-05-07T07:41:14;18.70;99.90
9450;DHT22;4763;48.370;10.874;2023-05-07T07:44:07;18.80;99.90
9450;DHT22;4763;48.370;10.874;2023-05-07T07:47:11;18.90;99.90
9450;DHT22;4763;48.370;10.874;2023-05-07T07:50:44;19.00;99.90
9450;DHT22;4763;48.370;10.874;2023-05-07T07:53:37;19.10;99.90
9450;DHT22;4763;48.370;10.874;2023-05-07T07:56:24;19.40;99.90
9450;DHT22;4763;48.370;10.874;2023-05-07T07:59:19;19.50;99.90
9450;DHT22;4763;48.370;10.874;2023-05-07T08:02:09;19.80;99.90
9450;DHT22;4763;48.370;10.874;2023-05-07T08:04:56;20.00;99.90
9450;DHT22;4763;48.370;10.874;2023-05-07T08:07:48;20.20;99.90
9450;DHT22;4763;48.370;10.874;2023-05-07T08:10:56;20.50;99.90
9450;DHT22;4763;48.370;10.874;2023-05-07T08:13:45;20.50;99.90
9450;DHT22;4763;48.370;10.874;2023-05-07T08:16:37;20.50;99.90
9450;DHT22;4763;48.370;10.874;2023-05-07T08:19:28;20.50;99.90
9450;DHT22;4763;48.370;10.874;2023-05-07T08:22:15;20.50;99.90
9450;DHT22;4763;48.370;10.874;2023-05-07T08:25:09;20.60;99.90
9450;DHT22;4763;48.370;10.874;2023-05-07T08:31:23;21.30;99.90
9450;DHT22;4763;48.370;10.874;2023-05-07T08:34:12;21.40;99.90
9450;DHT22;4763;48.370;10.874;2023-05-07T08:36:59;21.60;99.90
9450;DHT22;4763;48.370;10.874;2023-05-07T08:39:47;21.80;99.90
9450;DHT22;4763;48.370;10.874;2023-05-07T08:42:43;21.90;99.90
9450;DHT22;4763;48.370;10.874;2023-05-07T08:45:35;21.90;99.90
9450;DHT22;4763;48.370;10.874;2023-05-07T08:48:25;22.10;99.90
9450;DHT22;4763;48.370;10.874;2023-05-07T08:51:18;22.10;99.90
9450;DHT22;4763;48.370;10.874;2023-05-07T08:54:06;22.40;99.90
9450;DHT22;4763;48.370;10.874;2023-05-07T08:56:55;22.20;99.90
9450;DHT22;4763;48.370;10.874;2023-05-07T08:59:44;22.40;99.90
9450;DHT22;4763;48.370;10.874;2023-05-07T09:02:32;22.60;99.90
9450;DHT22;4763;48.370;10.874;2023-05-07T09:05:19;22.80;99.90
9450;DHT22;4763;48.370;10.874;2023-05-07T09:08:07;23.00;99.90
9450;DHT22;4763;48.370;10.874;2023-05-07T09:10:55;23.00;99.90
9450;DHT22;4763;48.370;10.874;2023-05-07T09:13:45;23.10;99.90
9450;DHT22;4763;48.370;10.874;2023-05-07T09:16:51;23.20;99.90
9450;DHT22;4763;48.370;10.874;2023-05-07T09:19:39;23.40;99.90
9450;DHT22;4763;48.370;10.874;2023-05-07T09:22:31;23.60;99.90
9450;DHT22;4763;48.370;10.874;2023-05-07T09:25:28;23.60;99.90
9450;DHT22;4763;48.370;10.874;2023-05-07T09:28:18;23.80;99.90
9450;DHT22;4763;48.370;10.874;2023-05-07T09:31:06;23.70;99.90
9450;DHT22;4763;48.370;10.874;2023-05-07T09:33:54;23.50;99.90
9450;DHT22;4763;48.370;10.874;2023-05-07T09:36:42;23.50;99.90
9450;DHT22;4763;48.370;10.874;2023-05-07T09:39:39;23.60;99.90
9450;DHT22;4763;48.370;10.874;2023-05-07T09:42:26;23.70;99.90
9450;DHT22;4763;48.370;10.874;2023-05-07T09:45:13;23.60;99.90
9450;DHT22;4763;48.370;10.874;2023-05-07T09:48:05;23.90;99.90
9450;DHT22;4763;48.370;10.874;2023-05-07T09:50:57;24.20;99.90
9450;DHT22;4763;48.370;10.874;2023-05-07T09:53:50;24.20;99.90
9450;DHT22;4763;48.370;10.874;2023-05-07T09:56:39;24.10;99.90
9450;DHT22;4763;48.370;10.874;2023-05-07T09:59:38;24.10;99.90
9450;DHT22;4763;48.370;10.874;2023-05-07T10:02:39;24.10;99.90
9450;DHT22;4763;48.370;10.874;2023-05-07T10:05:37;24.10;99.90
9450;DHT22;4763;48.370;10.874;2023-05-07T10:08:28;23.90;99.90
9450;DHT22;4763;48.370;10.874;2023-05-07T10:11:19;23.90;99.90
9450;DHT22;4763;48.370;10.874;2023-05-07T10:14:14;24.30;99.90
9450;DHT22;4763;48.370;10.874;2023-05-07T10:17:16;24.60;99.90
9450;DHT22;4763;48.370;10.874;2023-05-07T10:20:07;24.70;99.90
9450;DHT22;4763;48.370;10.874;2023-05-07T10:22:59;24.70;99.90
9450;DHT22;4763;48.370;10.874;2023-05-07T10:26:17;25.00;99.90
9450;DHT22;4763;48.370;10.874;2023-05-07T10:29:15;25.30;99.90
9450;DHT22;4763;48.370;10.874;2023-05-07T10:32:29;25.50;99.90
9450;DHT22;4763;48.370;10.874;2023-05-07T10:35:25;25.60;99.90
9450;DHT22;4763;48.370;10.874;2023-05-07T10:38:27;25.80;99.90
9450;DHT22;4763;48.370;10.874;2023-05-07T10:41:18;25.70;99.90
9450;DHT22;4763;48.370;10.874;2023-05-07T10:44:07;25.10;99.90
9450;DHT22;4763;48.370;10.874;2023-05-07T10:47:07;25.00;99.90
9450;DHT22;4763;48.370;10.874;2023-05-07T10:50:23;24.60;99.90
9450;DHT22;4763;48.370;10.874;2023-05-07T10:53:23;24.20;99.90
9450;DHT22;4763;48.370;10.874;2023-05-07T10:56:27;24.20;99.90
9450;DHT22;4763;48.370;10.874;2023-05-07T10:59:34;24.00;99.90
9450;DHT22;4763;48.370;10.874;2023-05-07T11:05:48;24.60;99.90
9450;DHT22;4763;48.370;10.874;2023-05-07T11:08:57;24.90;99.90
9450;DHT22;4763;48.370;10.874;2023-05-07T11:11:50;25.50;99.90
9450;DHT22;4763;48.370;10.874;2023-05-07T11:14:45;25.70;99.90
9450;DHT22;4763;48.370;10.874;2023-05-07T11:17:34;25.60;99.90
9450;DHT22;4763;48.370;10.874;2023-05-07T11:20:45;25.60;99.90
9450;DHT22;4763;48.370;10.874;2023-05-07T11:23:55;25.80;99.90
9450;DHT22;4763;48.370;10.874;2023-05-07T11:26:49;25.90;99.80
9450;DHT22;4763;48.370;10.874;2023-05-07T11:29:36;25.60;99.90
9450;DHT22;4763;48.370;10.874;2023-05-07T11:32:24;25.70;99.90
9450;DHT22;4763;48.370;10.874;2023-05-07T11:35:11;25.30;99.90
9450;DHT22;4763;48.370;10.874;2023-05-07T11:38:02;25.50;99.90
9450;DHT22;4763;48.370;10.874;2023-05-07T11:40:50;25.40;99.90
9450;DHT22;4763;48.370;10.874;2023-05-07T11:43:53;25.20;99.90
9450;DHT22;4763;48.370;10.874;2023-05-07T11:46:43;25.50;99.90
9450;DHT22;4763;48.370;10.874;2023-05-07T11:49:31;25.40;99.90
9450;DHT22;4763;48.370;10.874;2023-05-07T11:52:19;25.60;99.90
9450;DHT22;4763;48.370;10.874;2023-05-07T11:55:07;25.60;99.90
9450;DHT22;4763;48.370;10.874;2023-05-07T11:57:54;25.70;99.90
9450;DHT22;4763;48.370;10.874;2023-05-07T12:00:49;25.80;99.90
9450;DHT22;4763;48.370;10.874;2023-05-07T12:03:36;25.60;99.90
9450;DHT22;4763;48.370;10.874;2023-05-07T12:06:24;25.70;99.90
9450;DHT22;4763;48.370;10.874;2023-05-07T12:09:23;25.90;99.90
9450;DHT22;4763;48.370;10.874;2023-05-07T12:12:10;26.00;99.90
9450;DHT22;4763;48.370;10.874;2023-05-07T12:14:58;26.20;99.90
9450;DHT22;4763;48.370;10.874;2023-05-07T12:17:46;26.20;99.90
9450;DHT22;4763;48.370;10.874;2023-05-07T12:20:35;26.20;99.90
9450;DHT22;4763;48.370;10.874;2023-05-07T12:23:22;26.20;99.90
9450;DHT22;4763;48.370;10.874;2023-05-07T12:26:10;26.30;99.90
9450;DHT22;4763;48.370;10.874;2023-05-07T12:28:57;26.00;99.90
9450;DHT22;4763;48.370;10.874;2023-05-07T12:31:44;25.90;99.90
9450;DHT22;4763;48.370;10.874;2023-05-07T12:34:32;25.90;99.90
9450;DHT22;4763;48.370;10.874;2023-05-07T12:37:23;25.90;99.90
9450;DHT22;4763;48.370;10.874;2023-05-07T12:40:12;26.20;99.90
9450;DHT22;4763;48.370;10.874;2023-05-07T12:42:59;26.20;99.90
9450;DHT22;4763;48.370;10.874;2023-05-07T12:45:47;26.40;99.90
9450;DHT22;4763;48.370;10.874;2023-05-07T12:48:37;26.40;99.90
9450;DHT22;4763;48.370;10.874;2023-05-07T12:51:27;26.40;99.90
9450;DHT22;4763;48.370;10.874;2023-05-07T12:54:27;26.40;99.90
9450;DHT22;4763;48.370;10.874;2023-05-07T12:57:14;26.40;99.90
9450;DHT22;4763;48.370;10.874;2023-05-07T13:00:06;26.50;99.90
9450;DHT22;4763;48.370;10.874;2023-05-07T13:02:54;26.40;99.90
9450;DHT22;4763;48.370;10.874;2023-05-07T13:05:42;26.20;99.90
9450;DHT22;4763;48.370;10.874;2023-05-07T13:08:32;25.90;99.90
9450;DHT22;4763;48.370;10.874;2023-05-07T13:11:21;25.90;99.90
9450;DHT22;4763;48.370;10.874;2023-05-07T13:14:08;25.90;99.90
9450;DHT22;4763;48.370;10.874;2023-05-07T13:16:55;25.80;99.90
9450;DHT22;4763;48.370;10.874;2023-05-07T13:19:42;25.90;99.90
9450;DHT22;4763;48.370;10.874;2023-05-07T13:22:29;25.70;99.90
9450;DHT22;4763;48.370;10.874;2023-05-07T13:25:18;25.80;99.90
9450;DHT22;4763;48.370;10.874;2023-05-07T13:28:05;25.80;99.90
9450;DHT22;4763;48.370;10.874;2023-05-07T13:30:52;25.60;99.90
9450;DHT22;4763;48.370;10.874;2023-05-07T13:33:40;25.30;99.90
9450;DHT22;4763;48.370;10.874;2023-05-07T13:36:30;25.30;99.90
9450;DHT22;4763;48.370;10.874;2023-05-07T13:39:18;25.40;99.90
9450;DHT22;4763;48.370;10.874;2023-05-07T13:42:07;25.40;99.90
9450;DHT22;4763;48.370;10.874;2023-05-07T13:44:54;25.40;99.90
9450;DHT22;4763;48.370;10.874;2023-05-07T13:47:42;25.50;99.90
9450;DHT22;4763;48.370;10.874;2023-05-07T13:50:29;25.30;99.90
9450;DHT22;4763;48.370;10.874;2023-05-07T13:53:17;25.50;99.90
9450;DHT22;4763;48.370;10.874;2023-05-07T13:56:04;25.40;99.90
9450;DHT22;4763;48.370;10.874;2023-05-07T13:58:53;25.50;99.90
9450;DHT22;4763;48.370;10.874;2023-05-07T14:01:40;25.60;99.90
9450;DHT22;4763;48.370;10.874;2023-05-07T14:04:27;25.20;99.90
9450;DHT22;4763;48.370;10.874;2023-05-07T14:07:14;25.10;99.90
9450;DHT22;4763;48.370;10.874;2023-05-07T14:10:02;25.10;99.90
9450;DHT22;4763;48.370;10.874;2023-05-07T14:12:49;24.90;99.90
9450;DHT22;4763;48.370;10.874;2023-05-07T14:15:37;24.80;99.90
9450;DHT22;4763;48.370;10.874;2023-05-07T14:18:27;24.80;99.90
9450;DHT22;4763;48.370;10.874;2023-05-07T14:21:15;25.00;99.90
9450;DHT22;4763;48.370;10.874;2023-05-07T14:24:02;24.90;99.90
9450;DHT22;4763;48.370;10.874;2023-05-07T14:26:49;25.00;99.90
9450;DHT22;4763;48.370;10.874;2023-05-07T14:29:40;25.10;99.90
9450;DHT22;4763;48.370;10.874;2023-05-07T14:32:29;25.10;99.90
9450;DHT22;4763;48.370;10.874;2023-05-07T14:35:16;25.00;99.90
9450;DHT22;4763;48.370;10.874;2023-05-07T14:38:04;24.80;99.90
9450;DHT22;4763;48.370;10.874;2023-05-07T14:40:51;24.60;99.90
9450;DHT22;4763;48.370;10.874;2023-05-07T14:43:41;24.60;99.90
9450;DHT22;4763;48.370;10.874;2023-05-07T14:46:28;24.30;99.90
9450;DHT22;4763;48.370;10.874;2023-05-07T14:49:17;24.20;99.90
9450;DHT22;4763;48.370;10.874;2023-05-07T14:52:04;24.30;99.90
9450;DHT22;4763;48.370;10.874;2023-05-07T14:54:53;24.30;99.90
9450;DHT22;4763;48.370;10.874;2023-05-07T14:57:40;24.30;99.90
9450;DHT22;4763;48.370;10.874;2023-05-07T15:00:28;24.40;99.90
9450;DHT22;4763;48.370;10.874;2023-05-07T15:03:15;24.30;99.90
9450;DHT22;4763;48.370;10.874;2023-05-07T15:06:04;24.30;99.90
9450;DHT22;4763;48.370;10.874;2023-05-07T15:08:51;24.10;99.90
9450;DHT22;4763;48.370;10.874;2023-05-07T15:11:38;24.10;99.90
9450;DHT22;4763;48.370;10.874;2023-05-07T15:14:25;24.00;99.90
9450;DHT22;4763;48.370;10.874;2023-05-07T15:17:12;23.90;99.90
9450;DHT22;4763;48.370;10.874;2023-05-07T15:20:00;23.90;99.90
9450;DHT22;4763;48.370;10.874;2023-05-07T15:22:50;23.90;99.90
9450;DHT22;4763;48.370;10.874;2023-05-07T15:25:38;23.70;99.90
9450;DHT22;4763;48.370;10.874;2023-05-07T15:28:25;23.40;99.90
9450;DHT22;4763;48.370;10.874;2023-05-07T15:31:12;23.30;99.90
9450;DHT22;4763;48.370;10.874;2023-05-07T15:34:00;23.30;99.90
9450;DHT22;4763;48.370;10.874;2023-05-07T15:36:47;23.10;99.90
9450;DHT22;4763;48.370;10.874;2023-05-07T15:39:35;23.10;99.90
9450;DHT22;4763;48.370;10.874;2023-05-07T15:42:22;23.10;99.90
9450;DHT22;4763;48.370;10.874;2023-05-07T15:45:10;23.00;99.90
9450;DHT22;4763;48.370;10.874;2023-05-07T15:47:57;23.20;99.90
9450;DHT22;4763;48.370;10.874;2023-05-07T15:50:44;23.10;99.90
9450;DHT22;4763;48.370;10.874;2023-05-07T15:53:31;22.90;99.90
9450;DHT22;4763;48.370;10.874;2023-05-07T15:56:21;22.70;99.90
9450;DHT22;4763;48.370;10.874;2023-05-07T15:59:08;22.70;99.90
9450;DHT22;4763;48.370;10.874;2023-05-07T16:01:57;22.70;99.90
9450;DHT22;4763;48.370;10.874;2023-05-07T16:04:44;22.70;99.90
9450;DHT22;4763;48.370;10.874;2023-05-07T16:07:32;22.60;99.90
9450;DHT22;4763;48.370;10.874;2023-05-07T16:10:19;22.50;99.90
9450;DHT22;4763;48.370;10.874;2023-05-07T16:13:07;22.30;99.90
9450;DHT22;4763;48.370;10.874;2023-05-07T16:15:55;22.20;99.90
9450;DHT22;4763;48.370;10.874;2023-05-07T16:18:43;22.10;99.90
9450;DHT22;4763;48.370;10.874;2023-05-07T16:21:30;22.10;99.90
9450;DHT22;4763;48.370;10.874;2023-05-07T16:24:17;21.90;99.90
9450;DHT22;4763;48.370;10.874;2023-05-07T16:27:05;21.90;99.90
9450;DHT22;4763;48.370;10.874;2023-05-07T16:29:53;21.90;99.90
9450;DHT22;4763;48.370;10.874;2023-05-07T16:32:40;21.80;99.90
9450;DHT22;4763;48.370;10.874;2023-05-07T16:35:28;21.70;99.90
9450;DHT22;4763;48.370;10.874;2023-05-07T16:38:16;21.70;99.90
9450;DHT22;4763;48.370;10.874;2023-05-07T16:41:03;21.60;99.90
9450;DHT22;4763;48.370;10.874;2023-05-07T16:43:50;21.60;99.90
9450;DHT22;4763;48.370;10.874;2023-05-07T16:46:39;21.50;99.90
9450;DHT22;4763;48.370;10.874;2023-05-07T16:49:26;21.50;99.90
9450;DHT22;4763;48.370;10.874;2023-05-07T16:52:13;21.40;99.90
9450;DHT22;4763;48.370;10.874;2023-05-07T16:55:00;21.30;99.90
9450;DHT22;4763;48.370;10.874;2023-05-07T16:57:47;21.30;99.90
9450;DHT22;4763;48.370;10.874;2023-05-07T17:00:34;21.20;99.90
9450;DHT22;4763;48.370;10.874;2023-05-07T17:03:23;21.20;99.90
9450;DHT22;4763;48.370;10.874;2023-05-07T17:06:10;21.20;99.90
9450;DHT22;4763;48.370;10.874;2023-05-07T17:08:59;21.10;99.90
9450;DHT22;4763;48.370;10.874;2023-05-07T17:11:46;21.00;99.90
9450;DHT22;4763;48.370;10.874;2023-05-07T17:14:33;20.90;99.90
9450;DHT22;4763;48.370;10.874;2023-05-07T17:17:20;20.90;99.90
9450;DHT22;4763;48.370;10.874;2023-05-07T17:20:10;20.80;99.90
9450;DHT22;4763;48.370;10.874;2023-05-07T17:22:57;20.80;99.90
9450;DHT22;4763;48.370;10.874;2023-05-07T17:25:44;20.70;99.90
9450;DHT22;4763;48.370;10.874;2023-05-07T17:28:33;20.70;99.90
9450;DHT22;4763;48.370;10.874;2023-05-07T17:31:20;20.60;99.90
9450;DHT22;4763;48.370;10.874;2023-05-07T17:34:07;20.60;99.90
9450;DHT22;4763;48.370;10.874;2023-05-07T17:36:58;20.40;99.90
9450;DHT22;4763;48.370;10.874;2023-05-07T17:39:45;20.40;99.90
9450;DHT22;4763;48.370;10.874;2023-05-07T17:42:33;20.30;99.90
9450;DHT22;4763;48.370;10.874;2023-05-07T17:45:21;20.20;99.90
9450;DHT22;4763;48.370;10.874;2023-05-07T17:48:08;20.10;99.90
9450;DHT22;4763;48.370;10.874;2023-05-07T17:50:59;20.10;99.90
9450;DHT22;4763;48.370;10.874;2023-05-07T17:53:48;20.10;99.90
9450;DHT22;4763;48.370;10.874;2023-05-07T17:56:36;19.90;99.90
9450;DHT22;4763;48.370;10.874;2023-05-07T17:59:23;19.90;99.90
9450;DHT22;4763;48.370;10.874;2023-05-07T18:02:10;19.90;99.90
9450;DHT22;4763;48.370;10.874;2023-05-07T18:04:57;19.80;99.90
9450;DHT22;4763;48.370;10.874;2023-05-07T18:07:44;19.70;99.90
9450;DHT22;4763;48.370;10.874;2023-05-07T18:10:33;19.70;99.90
9450;DHT22;4763;48.370;10.874;2023-05-07T18:13:20;19.60;99.90